createdAt,value
2022-11-15T00:07:58.667Z,104.80
2022-11-15T00:18:21.506Z,80.10
2022-11-15T00:28:44.206Z,73.60
2022-11-15T00:39:07.420Z,84.50
2022-11-15T00:49:29.596Z,76.90
2022-11-15T00:59:51.884Z,69.40
2022-11-15T01:10:14.275Z,56.40
2022-11-15T01:20:44.355Z,72.70
2022-11-15T01:31:13.592Z,72.00
2022-11-15T01:41:35.873Z,69.20
2022-11-15T01:52:00.231Z,66.40
2022-11-15T02:02:23.219Z,61.60
2022-11-15T02:12:47.314Z,64.00
2022-11-15T02:23:39.844Z,57.80
2022-11-15T02:34:07.025Z,56.40
2022-11-15T02:44:38.736Z,56.40
2022-11-15T02:55:02.924Z,60.60
2022-11-15T03:05:43.805Z,58.20
2022-11-15T03:16:29.914Z,46.70
2022-11-15T03:26:55.621Z,50.20
2022-11-15T03:37:22.495Z,44.50
2022-11-15T03:47:55.424Z,42.90
2022-11-15T03:58:17.881Z,43.60
2022-11-15T04:08:40.303Z,45.20
2022-11-15T04:19:21.835Z,52.30
2022-11-15T04:29:44.323Z,41.70
2022-11-15T04:40:07.638Z,35.80
2022-11-15T04:50:30.237Z,42.60
2022-11-15T05:00:53.510Z,44.00
2022-11-15T05:11:16.243Z,36.10
2022-11-15T05:21:39.378Z,45.40
2022-11-15T05:32:02.075Z,56.30
2022-11-15T05:42:25.563Z,63.20
2022-11-15T05:52:48.829Z,44.50
2022-11-15T06:03:12.447Z,46.80
2022-11-15T06:13:35.509Z,45.10
2022-11-15T06:23:58.000Z,69.50
2022-11-15T06:34:20.291Z,60.50
2022-11-15T06:44:43.298Z,41.00
2022-11-15T06:55:06.571Z,48.60
2022-11-15T07:05:29.595Z,51.00
2022-11-15T07:15:52.010Z,45.10
2022-11-15T07:26:14.465Z,41.10
2022-11-15T07:36:37.710Z,32.90
2022-11-15T07:47:00.198Z,31.70
2022-11-15T07:57:23.232Z,33.60
2022-11-15T08:07:45.988Z,35.10
2022-11-15T08:18:13.113Z,31.80
2022-11-15T08:28:35.405Z,31.70
2022-11-15T08:38:57.792Z,27.70
2022-11-15T08:49:20.837Z,17.90
2022-11-15T08:59:44.845Z,17.10
2022-11-15T09:10:08.319Z,16.70
2022-11-15T09:20:30.626Z,13.80
2022-11-15T09:30:58.801Z,16.20
2022-11-15T09:41:30.151Z,14.00
2022-11-15T09:51:55.478Z,14.50
2022-11-15T10:02:47.467Z,13.60
2022-11-15T10:12:54.211Z,12.00
2022-11-15T10:23:02.463Z,17.00
2022-11-15T10:33:21.395Z,12.80
2022-11-15T10:43:27.536Z,13.70
2022-11-15T10:53:46.733Z,8.40
2022-11-15T11:04:10.333Z,8.50
2022-11-15T11:14:22.405Z,7.70
2022-11-15T11:24:46.948Z,8.10
2022-11-15T11:35:09.333Z,9.90
2022-11-15T11:45:25.287Z,9.50
2022-11-15T11:55:40.001Z,8.70
2022-11-15T12:05:48.398Z,8.20
2022-11-15T12:16:07.438Z,9.00
2022-11-15T12:26:20.374Z,10.90
2022-11-15T12:36:24.651Z,8.80
2022-11-15T12:46:31.530Z,11.20
2022-11-15T12:56:36.074Z,10.40
2022-11-15T13:06:47.900Z,8.40
2022-11-15T13:17:00.423Z,8.90
2022-11-15T13:27:20.998Z,21.10
2022-11-15T13:37:25.316Z,25.80
2022-11-15T13:47:31.035Z,23.20
2022-11-15T13:57:58.744Z,23.50
2022-11-15T14:08:22.362Z,30.20
2022-11-15T14:18:48.258Z,31.30
2022-11-15T14:28:52.612Z,33.90
2022-11-15T14:38:56.796Z,29.20
2022-11-15T14:49:01.076Z,25.30
2022-11-15T14:59:05.037Z,35.80
2022-11-15T15:09:09.017Z,25.40
2022-11-15T15:19:13.290Z,28.60
2022-11-15T15:29:17.165Z,42.50
2022-11-15T15:39:20.828Z,43.20
2022-11-15T15:49:25.210Z,36.20
2022-11-15T15:59:29.280Z,130.40
2022-11-15T16:09:51.981Z,50.50
2022-11-15T16:19:56.065Z,42.60
2022-11-15T16:30:00.083Z,45.70
2022-11-15T16:40:04.722Z,49.60
2022-11-15T16:50:24.558Z,61.10
2022-11-15T17:00:29.823Z,67.50
2022-11-15T17:10:34.759Z,61.70
2022-11-15T17:20:39.057Z,59.70
2022-11-15T17:30:44.322Z,72.20
2022-11-15T17:40:49.227Z,89.50
2022-11-15T17:51:05.349Z,65.20
2022-11-15T18:01:22.292Z,71.30
2022-11-15T18:11:30.568Z,67.80
2022-11-15T18:21:38.058Z,66.50
2022-11-15T18:31:47.420Z,63.60
2022-11-15T18:41:53.476Z,83.20
2022-11-15T18:51:58.985Z,64.60
2022-11-15T19:02:03.678Z,68.20
2022-11-15T19:12:09.218Z,60.50
2022-11-15T19:22:13.976Z,67.80
2022-11-15T19:32:20.719Z,84.50
2022-11-15T19:42:25.598Z,70.40
2022-11-15T19:52:30.797Z,70.20
2022-11-15T20:02:35.596Z,72.20
2022-11-15T20:12:40.184Z,86.80
2022-11-15T20:22:44.878Z,105.10
2022-11-15T20:32:58.152Z,96.70
2022-11-15T20:43:06.963Z,110.30
2022-11-15T20:53:17.859Z,115.40
2022-11-15T21:03:22.337Z,107.80
2022-11-15T21:13:28.013Z,103.50
2022-11-15T21:23:35.816Z,103.50
2022-11-15T21:33:40.058Z,116.80
2022-11-15T21:43:44.475Z,112.60
2022-11-15T21:53:48.241Z,114.80
2022-11-15T22:03:52.828Z,100.10
2022-11-15T22:13:58.705Z,110.30
2022-11-15T22:24:02.851Z,94.40
2022-11-15T22:34:07.311Z,99.10
2022-11-15T22:44:11.590Z,111.60
2022-11-15T22:54:15.868Z,106.70
2022-11-15T23:04:19.942Z,97.70
2022-11-15T23:14:23.920Z,89.30
2022-11-15T23:24:27.987Z,99.40
2022-11-15T23:34:32.697Z,99.40
2022-11-15T23:44:37.450Z,109.70
2022-11-15T23:54:42.058Z,90.20
